22 mei 2022

Tijd Code Weer Temp. Zicht Wolken Wind METAR/SPECI
09:30
M
22 °C 10 km+ 1.000 ft 080°   080° 9 kt METAR LFMT 220730Z AUTO 08009KT 9999 BKN010 22/19 Q1013 BECMG FEW009
09:00
I
20 °C 3,8 km 800 ft 060°   060° 8 kt METAR LFMT 220700Z AUTO 06008KT 9999 3800 BKN008 BKN200 20/19 Q1013 TEMPO 4000 BR BECMG FEW009
08:30
V
20 °C 10 km+ 20.000 ft 060°   060° 7 kt METAR LFMT 220630Z AUTO 06007KT 9999 FEW006 OVC200 20/18 Q1013 TEMPO 4000 BR BKN009
08:00
V
19 °C 10 km+ - 050°   050° 7 kt METAR LFMT 220600Z AUTO 05007KT CAVOK 19/18 Q1013 TEMPO 4000 BR BKN009
07:30
V
18 °C 10 km+ - 030°   030° 6 kt METAR LFMT 220530Z AUTO 03006KT CAVOK 18/18 Q1013 TEMPO 4000 BR BKN009
07:00
V
18 °C 10 km+ - 030°   030° 7 kt METAR LFMT 220500Z AUTO 03007KT CAVOK 18/17 Q1013 TEMPO 4000 BR BKN009
06:30
V
17 °C 8 km - 020°   020° 7 kt METAR LFMT 220430Z AUTO 02007KT 8000 NSC 17/16 Q1013 TEMPO 4000 BR BKN009
06:00
V
17 °C 8 km - 010°   010° 7 kt METAR LFMT 220400Z AUTO 01007KT 8000 NSC 17/16 Q1013 TEMPO 4000 BR BKN009
05:30
V
17 °C 8 km - 350°   350° 4 kt METAR LFMT 220330Z AUTO 35004KT 8000 NSC 17/16 Q1014 TEMPO 4000 BR BKN009
05:00
M
17 °C 7 km - 350°   350° 5 kt METAR LFMT 220300Z AUTO 35005KT 7000 NSC 17/16 Q1014 TEMPO 4000 BR BKN009
04:30
M
17 °C 7 km - 360°   360° 3 kt METAR LFMT 220230Z AUTO 36003KT 7000 NSC 17/16 Q1014 TEMPO BKN009
04:00
M
17 °C 7 km - 010°   010° 4 kt METAR LFMT 220200Z AUTO 01004KT 7000 NSC 17/16 Q1014 TEMPO BKN009
03:30
V
17 °C 8 km - 360°   360° 4 kt METAR LFMT 220130Z AUTO 36004KT 8000 NSC 17/16 Q1014 TEMPO BKN009
03:00
M
17 °C 7 km - 010°   010° 5 kt METAR LFMT 220100Z AUTO 01005KT 7000 NSC 17/16 Q1014 TEMPO BKN009
02:30
M
17 °C 7 km - 010°   010° 5 kt METAR LFMT 220030Z AUTO 01005KT 7000 NSC 17/16 Q1015 TEMPO BKN009
02:00
V
17 °C 8 km - 360°   360° 4 kt METAR LFMT 220000Z AUTO 36004KT 8000 NSC 17/16 Q1015 TEMPO BKN009
01:30
V
17 °C 8 km - 020°   020° 5 kt METAR LFMT 212330Z AUTO 02005KT 8000 NSC 17/16 Q1015 TEMPO BKN009
01:00
V
17 °C 8 km - 040°   040° 5 kt METAR LFMT 212300Z AUTO 04005KT 8000 NSC 17/17 Q1016 TEMPO BKN009
00:30
V
18 °C 10 km+ - 010°   010° 4 kt METAR LFMT 212230Z AUTO 01004KT 9999 FEW011 18/16 Q1016 TEMPO BKN009
00:00
V
18 °C 9 km - 020°   020° 4 kt METAR LFMT 212200Z AUTO 02004KT 9000 SCT010 18/17 Q1016 TEMPO BKN009

21 mei 2022

Tijd Code Weer Temp. Zicht Wolken Wind METAR/SPECI
23:30
V
18 °C 10 km+ - Var   Var 2 kt METAR LFMT 212130Z AUTO VRB02KT 9999 FEW010 18/17 Q1016 TEMPO BKN009
23:00
V
19 °C 10 km+ - Var   Var 3 kt METAR LFMT 212100Z AUTO VRB03KT 9999 FEW008 19/17 Q1017 TEMPO BKN009
22:30
V
19 °C 10 km+ - 160°   160° 4 kt METAR LFMT 212030Z AUTO 16004KT 130V190 9999 FEW009 19/18 Q1016 BECMG BKN009
22:00
V
19 °C 10 km+ - Var   Var 2 kt METAR LFMT 212000Z AUTO VRB02KT CAVOK 19/17 Q1017 BECMG BKN009
21:30
V
20 °C 10 km+ - 200°   200° 3 kt METAR LFMT 211930Z AUTO 20003KT 160V220 9999 SCT009 20/18 Q1017 BECMG BKN009
21:00
I
20 °C 10 km+ 900 ft 170°   170° 4 kt METAR LFMT 211900Z AUTO 17004KT 120V200 9999 BKN009 20/18 Q1017 TEMPO 4000 BR
20:30
V
20 °C 10 km+ - 180°   180° 3 kt METAR LFMT 211830Z AUTO 18003KT 150V210 9999 SCT010 20/18 Q1017 TEMPO 4000 BR BKN006
20:00
M
21 °C 10 km+ 1.000 ft 190°   190° 4 kt METAR LFMT 211800Z AUTO 19004KT 150V230 9999 BKN010 21/18 Q1017 NOSIG
19:30
M
22 °C 10 km+ 1.000 ft 190°   190° 5 kt METAR LFMT 211730Z AUTO 19005KT 160V230 9999 BKN010 22/19 Q1017 NOSIG
19:00
M
22 °C 10 km+ 1.000 ft 180°   180° 6 kt METAR LFMT 211700Z AUTO 18006KT 150V210 9999 BKN010 22/18 Q1017 NOSIG
18:30
I
22 °C 10 km+ 900 ft 180°   180° 7 kt METAR LFMT 211630Z AUTO 18007KT 150V210 9999 BKN009 22/19 Q1017 NOSIG
18:00
I
22 °C 10 km+ 900 ft 180°   180° 7 kt METAR LFMT 211600Z AUTO 18007KT 140V230 9999 OVC009 22/19 Q1018 NOSIG
17:30
I
22 °C 10 km+ 900 ft 150°   150° 8 kt METAR LFMT 211530Z AUTO 15008KT 130V190 9999 BKN009 22/19 Q1018 NOSIG
17:00
I
22 °C 10 km+ 900 ft 160°   160° 9 kt METAR LFMT 211500Z AUTO 16009KT 130V190 9999 BKN009 22/19 Q1018 BECMG NSC
16:30
I
21 °C 10 km+ 800 ft 150°   150° 10 kt METAR LFMT 211430Z AUTO 15010KT 9999 BKN008 21/18 Q1018 BECMG NSC
16:00
V
22 °C 10 km+ - 150°   150° 12 kt METAR LFMT 211400Z AUTO 15012KT 9999 FEW007 22/18 Q1019 NOSIG
15:30
V
22 °C 10 km+ - 150°   150° 13 kt METAR LFMT 211330Z AUTO 15013KT CAVOK 22/18 Q1019 NOSIG
15:00
V
23 °C 10 km+ - 150°   150° 12 kt METAR LFMT 211300Z AUTO 15012KT CAVOK 23/19 Q1019 NOSIG
14:30
V
23 °C 10 km+ - 160°   160° 10 kt METAR LFMT 211230Z AUTO 16010KT CAVOK 23/19 Q1019 NOSIG
14:00
V
23 °C 10 km+ - 160°   160° 10 kt METAR LFMT 211200Z AUTO 16010KT CAVOK 23/19 Q1020 NOSIG
13:30
V
23 °C 10 km+ - 170°   170° 9 kt METAR LFMT 211130Z AUTO 17009KT CAVOK 23/19 Q1020 NOSIG
13:00
V
23 °C 10 km+ - 170°   170° 9 kt METAR LFMT 211100Z AUTO 17009KT 140V200 CAVOK 23/19 Q1020 NOSIG
12:30
V
24 °C 10 km+ - 170°   170° 9 kt METAR LFMT 211030Z AUTO 17009KT CAVOK 24/19 Q1020 NOSIG
12:00
V
26 °C 10 km+ - 100°   100° 5 kt METAR LFMT 211000Z AUTO 10005KT 070V150 CAVOK 26/14 Q1020 NOSIG
11:30
V
26 °C 10 km+ - 100°   100° 9 kt METAR LFMT 210930Z AUTO 10009KT CAVOK 26/14 Q1021 BECMG 19010KT
11:00
V
25 °C 10 km+ - 090°   090° 7 kt METAR LFMT 210900Z AUTO 09007KT 070V130 CAVOK 25/14 Q1021 BECMG 19010KT
10:30
V
24 °C 10 km+ - 100°   100° 7 kt METAR LFMT 210830Z AUTO 10007KT CAVOK 24/15 Q1021 NOSIG
10:00
V
23 °C 10 km+ - 090°   090° 6 kt METAR LFMT 210800Z AUTO 09006KT CAVOK 23/15 Q1021 BECMG 15012KT
09:30
V
23 °C 10 km+ - 080°   080° 5 kt METAR LFMT 210730Z AUTO 08005KT CAVOK 23/15 Q1021 BECMG 15012KT
09:00
V
22 °C 10 km+ - 050°   050° 5 kt METAR LFMT 210700Z AUTO 05005KT 020V090 CAVOK 22/15 Q1021 NOSIG
08:30
V
21 °C 10 km+ - 030°   030° 5 kt METAR LFMT 210630Z AUTO 03005KT CAVOK 21/14 Q1021 NOSIG
08:00
V
20 °C 10 km+ - 020°   020° 7 kt METAR LFMT 210600Z AUTO 02007KT CAVOK 20/14 Q1021 TEMPO BKN007
07:30
V
18 °C 10 km+ - 010°   010° 7 kt METAR LFMT 210530Z AUTO 01007KT CAVOK 18/14 Q1021 TEMPO BKN007
07:00
V
17 °C 10 km+ - 010°   010° 6 kt METAR LFMT 210500Z AUTO 01006KT CAVOK 17/14 Q1021 TEMPO BKN007
06:30
V
16 °C 10 km+ - 010°   010° 7 kt METAR LFMT 210430Z AUTO 01007KT CAVOK 16/14 Q1022 TEMPO BKN007
06:00
V
16 °C 10 km+ - 010°   010° 6 kt METAR LFMT 210400Z AUTO 01006KT CAVOK 16/14 Q1022 TEMPO BKN007
05:30
V
17 °C 10 km+ - 010°   010° 6 kt METAR LFMT 210330Z AUTO 01006KT CAVOK 17/14 Q1022 TEMPO BKN007
05:00
V
17 °C 10 km+ - 020°   020° 6 kt METAR LFMT 210300Z AUTO 02006KT CAVOK 17/14 Q1022 TEMPO BKN007
04:30
V
17 °C 10 km+ - 030°   030° 6 kt METAR LFMT 210230Z AUTO 03006KT CAVOK 17/14 Q1022 TEMPO BKN007
04:00
V
18 °C 10 km+ - 040°   040° 6 kt METAR LFMT 210200Z AUTO 04006KT CAVOK 18/14 Q1022 TEMPO BKN007
03:30
V
18 °C 10 km+ - 020°   020° 6 kt METAR LFMT 210130Z AUTO 02006KT CAVOK 18/15 Q1022 TEMPO BKN007
03:00
V
18 °C 10 km+ - 040°   040° 6 kt METAR LFMT 210100Z AUTO 04006KT CAVOK 18/15 Q1023 TEMPO BKN007
02:30
V
18 °C 10 km+ - 030°   030° 6 kt METAR LFMT 210030Z AUTO 03006KT CAVOK 18/15 Q1023 TEMPO BKN007
02:00
V
18 °C 10 km+ - 030°   030° 6 kt METAR LFMT 210000Z AUTO 03006KT CAVOK 18/15 Q1023 TEMPO BKN007
01:30
V
18 °C 10 km+ - 030°   030° 6 kt METAR LFMT 202330Z AUTO 03006KT CAVOK 18/15 Q1023 TEMPO BKN007
01:00
V
18 °C 10 km+ - 040°   040° 6 kt METAR LFMT 202300Z AUTO 04006KT CAVOK 18/15 Q1024 TEMPO BKN007
00:30
V
19 °C 10 km+ - 030°   030° 6 kt METAR LFMT 202230Z AUTO 03006KT CAVOK 19/15 Q1024 TEMPO BKN007
00:00
V
19 °C 10 km+ - 040°   040° 6 kt METAR LFMT 202200Z AUTO 04006KT CAVOK 19/15 Q1024 TEMPO BKN007

20 mei 2022

Tijd Code Weer Temp. Zicht Wolken Wind METAR/SPECI
23:30
V
20 °C 10 km+ - 060°   060° 6 kt METAR LFMT 202130Z AUTO 06006KT 040V110 CAVOK 20/16 Q1024 TEMPO BKN007
23:00
V
21 °C 10 km+ - 100°   100° 7 kt METAR LFMT 202100Z AUTO 10007KT CAVOK 21/17 Q1024 NOSIG
22:30
V
21 °C 10 km+ - 110°   110° 7 kt METAR LFMT 202030Z AUTO 11007KT CAVOK 21/17 Q1024 TEMPO 3000 BR OVC004
22:00
V
21 °C 10 km+ - 110°   110° 6 kt METAR LFMT 202000Z AUTO 11006KT CAVOK 21/17 Q1024 TEMPO 3000 BR OVC004
21:30
V
22 °C 10 km+ - 130°   130° 8 kt METAR LFMT 201930Z AUTO 13008KT CAVOK 22/17 Q1024 TEMPO 3000 BR OVC004
21:00
V
22 °C 10 km+ - 130°   130° 11 kt METAR LFMT 201900Z AUTO 13011KT CAVOK 22/17 Q1024 TEMPO 3000 BR OVC004 BECMG 04005KT
20:30
V
22 °C 10 km+ - 130°   130° 10 kt METAR LFMT 201830Z AUTO 13010KT CAVOK 22/17 Q1024 TEMPO 3000 BR OVC004 BECMG 04005KT
20:00
V
23 °C 10 km+ - 130°   130° 13 kt METAR LFMT 201800Z AUTO 13013KT CAVOK 23/18 Q1024 BECMG 04005KT
19:30
V
23 °C 10 km+ - 130°   130° 11 kt METAR LFMT 201730Z AUTO 13011KT CAVOK 23/18 Q1024 BECMG 04005KT
19:00
V
23 °C 10 km+ - 130°   130° 13 kt METAR LFMT 201700Z AUTO 13013KT CAVOK 23/18 Q1024 BECMG 04005KT
18:30
V
23 °C 10 km+ - 130°   130° 13 kt METAR LFMT 201630Z AUTO 13013KT CAVOK 23/19 Q1024 BECMG 04005KT
18:00
V
23 °C 10 km+ - 130°   130° 13 kt METAR LFMT 201600Z AUTO 13013KT CAVOK 23/18 Q1024 NOSIG
17:30
V
24 °C 10 km+ - 130°   130° 12 kt METAR LFMT 201530Z AUTO 13012KT CAVOK 24/18 Q1024 NOSIG
17:00
V
24 °C 10 km+ - 130°   130° 13 kt METAR LFMT 201500Z AUTO 13013KT CAVOK 24/19 Q1024 NOSIG
16:30
V
24 °C 10 km+ - 130°   130° 13 kt METAR LFMT 201430Z AUTO 13013KT CAVOK 24/19 Q1024 NOSIG
16:00
V
24 °C 10 km+ - 130°   130° 13 kt METAR LFMT 201400Z AUTO 13013KT CAVOK 24/19 Q1025 NOSIG
15:30
V
24 °C 10 km+ - 130°   130° 14 kt METAR LFMT 201330Z AUTO 13014KT CAVOK 24/18 Q1025 NOSIG
15:00
V
24 °C 10 km+ - 130°   130° 14 kt METAR LFMT 201300Z AUTO 13014KT CAVOK 24/18 Q1025 NOSIG
14:30
V
24 °C 10 km+ - 130°   130° 12 kt METAR LFMT 201230Z AUTO 13012KT CAVOK 24/18 Q1025 NOSIG
14:00
V
24 °C 10 km+ - 140°   140° 12 kt METAR LFMT 201200Z AUTO 14012KT CAVOK 24/19 Q1025 NOSIG
13:30
V
24 °C 10 km+ - 130°   130° 14 kt METAR LFMT 201130Z AUTO 13014KT CAVOK 24/18 Q1025 NOSIG
13:00
V
24 °C 10 km+ - 130°   130° 14 kt METAR LFMT 201100Z AUTO 13014KT CAVOK 24/19 Q1025 NOSIG
12:30
V
23 °C 10 km+ - 130°   130° 16 kt METAR LFMT 201030Z AUTO 13016KT CAVOK 23/20 Q1026 NOSIG
12:00
V
23 °C 10 km+ - 130°   130° 15 kt METAR LFMT 201000Z AUTO 13015KT CAVOK 23/19 Q1026 NOSIG
11:30
V
23 °C 10 km+ - 130°   130° 14 kt METAR LFMT 200930Z AUTO 13014KT CAVOK 23/20 Q1026 NOSIG
11:00
V
23 °C 10 km+ - 130°   130° 14 kt METAR LFMT 200900Z AUTO 13014KT CAVOK 23/19 Q1026 NOSIG
10:30
V
23 °C 10 km+ - 140°   140° 13 kt METAR LFMT 200830Z AUTO 14013KT CAVOK 23/18 Q1026 NOSIG
10:00
V
23 °C 10 km+ - 110°   110° 6 kt METAR LFMT 200800Z AUTO 11006KT 070V160 CAVOK 23/18 Q1026 NOSIG
09:30
V
23 °C 10 km+ - 060°   060° 7 kt METAR LFMT 200730Z AUTO 06007KT CAVOK 23/17 Q1026 BECMG 14010KT
09:00
V
21 °C 10 km+ - 050°   050° 6 kt METAR LFMT 200700Z AUTO 05006KT CAVOK 21/16 Q1026 BECMG 14010KT
Oudere gegevens

Installeer onze app

Gemakkelijke toegang tot al het luchtvaartweer op je mobiele telefoon en tablet.
Met veel functies die niet op de website beschikbaar zijn, zoals offline ondersteuning en een persoonlijke lijst van vliegvelden.

Met cookies volgen wij en derde partijen jouw internetgedrag binnen onze site. Als je verdergaat gaan we ervan uit dat je dit goedvindt. Meer info